Burnham, New Mexico
Current Conditions -  °F | °C
As of 6:53 PM on Wednesday 22 Oct 2014 (Local Time) from KFMN Reporting Station
Clear Clear  
Wind Chill: 62°   Ceiling: Unl
Heat Index: 62°   Visibility: 10mi
Dew Point: 35°   Wind: 6mph
Humidity: 37%   Direction: 300°WNW
Pressure: 30.15"   Gusts: NA
Location:  36.3443°N, 108.144°W
Report Text: KFMN 230053Z 30005KT 10SM CLR 17/02 A3015 RMK AO2 SLP184 T01670017
Loading
Personal Weather Stations






























Interactive Weather Map
Tropical Storm Tracking
New forecast layout! Learn more

10-Day Weather Forecast

Advertisements
Track Severe Weather on mobile